El Chanar, Argentina
Current Conditions -  °F | °C
As of 10:00 PM on Saturday 22 Nov 2014 (Local Time) from SANT Reporting Station
Scattered Clouds Scattered Clouds  
Wind Chill: 75°   Ceiling: Unl
Heat Index: 75°   Visibility: 6mi
Dew Point: 61°   Wind: 9mph
Humidity: 61%   Direction: 360°N
Pressure: 29.94"   Gusts: NA
Location:  26.77°S, 65.05°W
Report Text: SANT 230100Z 36008KT 9999 FEW050 SCT10024/16 Q1014
Loading
Personal Weather Stations






























Interactive Weather Map New forecast layout! Learn more

10-Day Weather Forecast

Advertisements
Track Severe Weather on mobile